Poio, Spain
Current Conditions -  °F | °C
As of 5:00 PM on Wednesday 28 Jan 2015 (Local Time) from LEVX Reporting Station
Haze Haze  
Wind Chill: 10°   Ceiling: 900
Heat Index: 10°   Visibility: 3mi
Dew Point:   Wind: 2mph
Humidity: 94%   Direction: NA
Pressure: 30.33"   Gusts: NA
Location:  42.44°N, 8.71°W
Report Text: LEVX 281600Z VRB02KT 5000 BR OVC009 10/09 Q1027 TEMPO 3000-DZ BR
Loading
Personal Weather Stations






























Interactive Weather Map New forecast layout! Learn more

10-Day Weather Forecast

Advertisements
Track Severe Weather on mobile